sensor_id;sensor_type;location;lat;lon;timestamp;P1;durP1;ratioP1;P2;durP2;ratioP2
4555;SDS011;2290;48.674;9.018;2023-04-16T00:02:20;5.70;;;3.73;;
4555;SDS011;2290;48.674;9.018;2023-04-16T00:04:47;4.90;;;3.13;;
4555;SDS011;2290;48.674;9.018;2023-04-16T00:07:14;6.53;;;3.60;;
4555;SDS011;2290;48.674;9.018;2023-04-16T00:09:40;6.50;;;3.97;;
4555;SDS011;2290;48.674;9.018;2023-04-16T00:12:05;6.23;;;3.70;;
4555;SDS011;2290;48.674;9.018;2023-04-16T00:14:31;6.57;;;3.83;;
4555;SDS011;2290;48.674;9.018;2023-04-16T00:16:57;5.80;;;4.10;;
4555;SDS011;2290;48.674;9.018;2023-04-16T00:19:22;6.00;;;3.80;;
4555;SDS011;2290;48.674;9.018;2023-04-16T00:21:48;8.57;;;4.10;;
4555;SDS011;2290;48.674;9.018;2023-04-16T00:24:14;6.50;;;4.20;;
4555;SDS011;2290;48.674;9.018;2023-04-16T00:26:39;7.63;;;4.03;;
4555;SDS011;2290;48.674;9.018;2023-04-16T00:29:05;7.57;;;4.30;;
4555;SDS011;2290;48.674;9.018;2023-04-16T00:31:32;6.60;;;4.40;;
4555;SDS011;2290;48.674;9.018;2023-04-16T00:33:58;6.80;;;3.93;;
4555;SDS011;2290;48.674;9.018;2023-04-16T00:36:25;8.50;;;4.40;;
4555;SDS011;2290;48.674;9.018;2023-04-16T00:38:51;6.67;;;4.00;;
4555;SDS011;2290;48.674;9.018;2023-04-16T00:41:17;7.97;;;4.33;;
4555;SDS011;2290;48.674;9.018;2023-04-16T00:43:43;6.87;;;4.10;;
4555;SDS011;2290;48.674;9.018;2023-04-16T00:46:09;7.03;;;3.60;;
4555;SDS011;2290;48.674;9.018;2023-04-16T00:48:37;5.77;;;4.17;;
4555;SDS011;2290;48.674;9.018;2023-04-16T00:51:06;5.57;;;3.73;;
4555;SDS011;2290;48.674;9.018;2023-04-16T00:53:32;8.13;;;4.30;;
4555;SDS011;2290;48.674;9.018;2023-04-16T00:55:59;6.47;;;3.80;;
4555;SDS011;2290;48.674;9.018;2023-04-16T00:58:26;6.30;;;3.80;;
4555;SDS011;2290;48.674;9.018;2023-04-16T01:00:53;6.57;;;4.60;;
4555;SDS011;2290;48.674;9.018;2023-04-16T01:03:19;5.63;;;3.73;;
4555;SDS011;2290;48.674;9.018;2023-04-16T01:05:44;7.67;;;3.80;;
4555;SDS011;2290;48.674;9.018;2023-04-16T01:08:20;8.70;;;4.10;;
4555;SDS011;2290;48.674;9.018;2023-04-16T01:10:46;6.23;;;4.10;;
4555;SDS011;2290;48.674;9.018;2023-04-16T01:13:12;7.90;;;4.17;;
4555;SDS011;2290;48.674;9.018;2023-04-16T01:15:38;5.10;;;3.50;;
4555;SDS011;2290;48.674;9.018;2023-04-16T01:18:17;5.23;;;3.70;;
4555;SDS011;2290;48.674;9.018;2023-04-16T01:20:48;5.97;;;3.40;;
4555;SDS011;2290;48.674;9.018;2023-04-16T01:23:14;5.07;;;3.40;;
4555;SDS011;2290;48.674;9.018;2023-04-16T01:25:42;4.97;;;3.60;;
4555;SDS011;2290;48.674;9.018;2023-04-16T01:28:09;6.93;;;3.73;;
4555;SDS011;2290;48.674;9.018;2023-04-16T01:30:36;5.90;;;3.53;;
4555;SDS011;2290;48.674;9.018;2023-04-16T01:33:01;8.60;;;3.90;;
4555;SDS011;2290;48.674;9.018;2023-04-16T01:35:28;5.20;;;3.70;;
4555;SDS011;2290;48.674;9.018;2023-04-16T01:37:55;4.13;;;3.03;;
4555;SDS011;2290;48.674;9.018;2023-04-16T01:40:21;5.70;;;3.43;;
4555;SDS011;2290;48.674;9.018;2023-04-16T01:42:46;3.73;;;2.93;;
4555;SDS011;2290;48.674;9.018;2023-04-16T01:45:12;5.60;;;3.57;;
4555;SDS011;2290;48.674;9.018;2023-04-16T01:47:38;4.93;;;3.23;;
4555;SDS011;2290;48.674;9.018;2023-04-16T01:50:04;6.50;;;3.40;;
4555;SDS011;2290;48.674;9.018;2023-04-16T01:52:30;5.00;;;3.10;;
4555;SDS011;2290;48.674;9.018;2023-04-16T01:54:56;4.90;;;3.20;;
4555;SDS011;2290;48.674;9.018;2023-04-16T01:57:22;4.60;;;3.27;;
4555;SDS011;2290;48.674;9.018;2023-04-16T01:59:48;4.60;;;2.93;;
4555;SDS011;2290;48.674;9.018;2023-04-16T02:02:14;5.23;;;3.07;;
4555;SDS011;2290;48.674;9.018;2023-04-16T02:04:42;4.93;;;2.80;;
4555;SDS011;2290;48.674;9.018;2023-04-16T02:07:09;4.17;;;2.50;;
4555;SDS011;2290;48.674;9.018;2023-04-16T02:09:38;5.27;;;2.90;;
4555;SDS011;2290;48.674;9.018;2023-04-16T02:12:08;5.47;;;3.00;;
4555;SDS011;2290;48.674;9.018;2023-04-16T02:14:35;4.93;;;2.73;;
4555;SDS011;2290;48.674;9.018;2023-04-16T02:17:01;3.87;;;3.17;;
4555;SDS011;2290;48.674;9.018;2023-04-16T02:19:26;5.43;;;3.10;;
4555;SDS011;2290;48.674;9.018;2023-04-16T02:21:52;4.20;;;2.77;;
4555;SDS011;2290;48.674;9.018;2023-04-16T02:24:20;4.03;;;2.60;;
4555;SDS011;2290;48.674;9.018;2023-04-16T02:26:46;3.37;;;2.30;;
4555;SDS011;2290;48.674;9.018;2023-04-16T02:29:12;5.37;;;2.90;;
4555;SDS011;2290;48.674;9.018;2023-04-16T02:31:38;3.43;;;2.50;;
4555;SDS011;2290;48.674;9.018;2023-04-16T02:34:03;4.17;;;2.37;;
4555;SDS011;2290;48.674;9.018;2023-04-16T02:36:30;5.20;;;2.90;;
4555;SDS011;2290;48.674;9.018;2023-04-16T02:38:56;3.53;;;2.33;;
4555;SDS011;2290;48.674;9.018;2023-04-16T02:41:22;3.80;;;2.60;;
4555;SDS011;2290;48.674;9.018;2023-04-16T02:43:49;4.80;;;2.90;;
4555;SDS011;2290;48.674;9.018;2023-04-16T02:46:16;2.60;;;2.10;;
4555;SDS011;2290;48.674;9.018;2023-04-16T02:48:42;5.07;;;3.10;;
4555;SDS011;2290;48.674;9.018;2023-04-16T02:51:09;4.43;;;2.93;;
4555;SDS011;2290;48.674;9.018;2023-04-16T02:53:34;4.13;;;2.60;;
4555;SDS011;2290;48.674;9.018;2023-04-16T02:56:02;4.47;;;2.67;;
4555;SDS011;2290;48.674;9.018;2023-04-16T02:58:27;5.30;;;2.43;;
4555;SDS011;2290;48.674;9.018;2023-04-16T03:00:54;3.40;;;2.80;;
4555;SDS011;2290;48.674;9.018;2023-04-16T03:03:20;3.70;;;2.47;;
4555;SDS011;2290;48.674;9.018;2023-04-16T03:05:46;4.33;;;2.80;;
4555;SDS011;2290;48.674;9.018;2023-04-16T03:08:12;4.53;;;2.40;;
4555;SDS011;2290;48.674;9.018;2023-04-16T03:10:38;4.23;;;2.87;;
4555;SDS011;2290;48.674;9.018;2023-04-16T03:13:06;4.80;;;2.77;;
4555;SDS011;2290;48.674;9.018;2023-04-16T03:15:32;5.53;;;2.90;;
4555;SDS011;2290;48.674;9.018;2023-04-16T03:17:58;3.43;;;2.40;;
4555;SDS011;2290;48.674;9.018;2023-04-16T03:20:24;4.43;;;3.00;;
4555;SDS011;2290;48.674;9.018;2023-04-16T03:22:50;4.50;;;3.17;;
4555;SDS011;2290;48.674;9.018;2023-04-16T03:25:19;3.83;;;2.50;;
4555;SDS011;2290;48.674;9.018;2023-04-16T03:27:46;4.50;;;2.80;;
4555;SDS011;2290;48.674;9.018;2023-04-16T03:30:12;5.50;;;3.50;;
4555;SDS011;2290;48.674;9.018;2023-04-16T03:32:39;5.13;;;2.90;;
4555;SDS011;2290;48.674;9.018;2023-04-16T03:35:06;6.13;;;3.87;;
4555;SDS011;2290;48.674;9.018;2023-04-16T03:37:33;6.20;;;3.20;;
4555;SDS011;2290;48.674;9.018;2023-04-16T03:39:59;5.00;;;3.37;;
4555;SDS011;2290;48.674;9.018;2023-04-16T03:42:26;6.73;;;3.60;;
4555;SDS011;2290;48.674;9.018;2023-04-16T03:44:52;4.93;;;3.47;;
4555;SDS011;2290;48.674;9.018;2023-04-16T03:47:18;6.07;;;3.53;;
4555;SDS011;2290;48.674;9.018;2023-04-16T03:49:44;6.50;;;3.80;;
4555;SDS011;2290;48.674;9.018;2023-04-16T03:52:10;6.07;;;3.20;;
4555;SDS011;2290;48.674;9.018;2023-04-16T03:54:35;4.97;;;3.40;;
4555;SDS011;2290;48.674;9.018;2023-04-16T03:57:01;7.20;;;3.30;;
4555;SDS011;2290;48.674;9.018;2023-04-16T03:59:26;5.00;;;3.10;;
4555;SDS011;2290;48.674;9.018;2023-04-16T04:01:52;7.70;;;3.30;;
4555;SDS011;2290;48.674;9.018;2023-04-16T04:04:18;6.60;;;3.70;;
4555;SDS011;2290;48.674;9.018;2023-04-16T04:06:45;5.63;;;3.07;;
4555;SDS011;2290;48.674;9.018;2023-04-16T04:09:11;6.13;;;3.40;;
4555;SDS011;2290;48.674;9.018;2023-04-16T04:11:37;6.00;;;3.27;;
4555;SDS011;2290;48.674;9.018;2023-04-16T04:14:04;6.13;;;3.33;;
4555;SDS011;2290;48.674;9.018;2023-04-16T04:16:30;5.03;;;3.00;;
4555;SDS011;2290;48.674;9.018;2023-04-16T04:18:56;5.77;;;3.03;;
4555;SDS011;2290;48.674;9.018;2023-04-16T04:21:21;5.60;;;3.40;;
4555;SDS011;2290;48.674;9.018;2023-04-16T04:23:48;5.37;;;2.73;;
4555;SDS011;2290;48.674;9.018;2023-04-16T04:26:14;5.67;;;2.70;;
4555;SDS011;2290;48.674;9.018;2023-04-16T04:28:40;4.90;;;3.10;;
4555;SDS011;2290;48.674;9.018;2023-04-16T04:31:05;5.90;;;3.27;;
4555;SDS011;2290;48.674;9.018;2023-04-16T04:33:31;4.93;;;3.10;;
4555;SDS011;2290;48.674;9.018;2023-04-16T04:35:58;3.30;;;2.17;;
4555;SDS011;2290;48.674;9.018;2023-04-16T04:38:23;3.27;;;2.90;;
4555;SDS011;2290;48.674;9.018;2023-04-16T04:40:50;4.03;;;2.40;;
4555;SDS011;2290;48.674;9.018;2023-04-16T04:43:18;5.00;;;2.57;;
4555;SDS011;2290;48.674;9.018;2023-04-16T04:45:44;6.70;;;3.10;;
4555;SDS011;2290;48.674;9.018;2023-04-16T04:48:11;4.77;;;3.03;;
4555;SDS011;2290;48.674;9.018;2023-04-16T04:50:37;3.83;;;2.93;;
4555;SDS011;2290;48.674;9.018;2023-04-16T04:53:04;5.80;;;3.10;;
4555;SDS011;2290;48.674;9.018;2023-04-16T04:55:34;5.30;;;3.10;;
4555;SDS011;2290;48.674;9.018;2023-04-16T04:58:01;4.60;;;2.97;;
4555;SDS011;2290;48.674;9.018;2023-04-16T05:00:29;6.47;;;3.00;;
4555;SDS011;2290;48.674;9.018;2023-04-16T05:02:55;4.70;;;3.00;;
4555;SDS011;2290;48.674;9.018;2023-04-16T05:05:22;5.70;;;2.63;;
4555;SDS011;2290;48.674;9.018;2023-04-16T05:07:47;5.40;;;3.27;;
4555;SDS011;2290;48.674;9.018;2023-04-16T05:10:13;4.00;;;2.80;;
4555;SDS011;2290;48.674;9.018;2023-04-16T05:12:38;5.10;;;3.20;;
4555;SDS011;2290;48.674;9.018;2023-04-16T05:15:04;8.27;;;3.50;;
4555;SDS011;2290;48.674;9.018;2023-04-16T05:17:30;5.97;;;3.53;;
4555;SDS011;2290;48.674;9.018;2023-04-16T05:19:55;6.23;;;3.60;;
4555;SDS011;2290;48.674;9.018;2023-04-16T05:22:21;7.37;;;3.20;;
4555;SDS011;2290;48.674;9.018;2023-04-16T05:24:47;4.30;;;2.83;;
4555;SDS011;2290;48.674;9.018;2023-04-16T05:27:12;6.23;;;3.73;;
4555;SDS011;2290;48.674;9.018;2023-04-16T05:29:39;7.67;;;4.30;;
4555;SDS011;2290;48.674;9.018;2023-04-16T05:32:05;9.23;;;3.80;;
4555;SDS011;2290;48.674;9.018;2023-04-16T05:34:30;6.13;;;3.80;;
4555;SDS011;2290;48.674;9.018;2023-04-16T05:36:56;8.57;;;4.60;;
4555;SDS011;2290;48.674;9.018;2023-04-16T05:39:21;11.43;;;5.67;;
4555;SDS011;2290;48.674;9.018;2023-04-16T05:41:47;10.13;;;4.90;;
4555;SDS011;2290;48.674;9.018;2023-04-16T05:44:13;9.90;;;5.47;;
4555;SDS011;2290;48.674;9.018;2023-04-16T05:46:39;12.80;;;5.20;;
4555;SDS011;2290;48.674;9.018;2023-04-16T05:49:05;9.20;;;5.63;;
4555;SDS011;2290;48.674;9.018;2023-04-16T05:51:30;13.30;;;6.20;;
4555;SDS011;2290;48.674;9.018;2023-04-16T05:53:56;10.30;;;5.40;;
4555;SDS011;2290;48.674;9.018;2023-04-16T05:56:23;11.33;;;5.50;;
4555;SDS011;2290;48.674;9.018;2023-04-16T05:58:49;12.63;;;6.43;;
4555;SDS011;2290;48.674;9.018;2023-04-16T06:01:15;10.00;;;5.27;;
4555;SDS011;2290;48.674;9.018;2023-04-16T06:03:42;16.03;;;7.43;;
4555;SDS011;2290;48.674;9.018;2023-04-16T06:06:08;13.40;;;6.70;;
4555;SDS011;2290;48.674;9.018;2023-04-16T06:08:33;14.20;;;6.40;;
4555;SDS011;2290;48.674;9.018;2023-04-16T06:10:59;13.33;;;6.83;;
4555;SDS011;2290;48.674;9.018;2023-04-16T06:13:25;18.73;;;7.20;;
4555;SDS011;2290;48.674;9.018;2023-04-16T06:15:51;13.50;;;6.70;;
4555;SDS011;2290;48.674;9.018;2023-04-16T06:18:17;14.47;;;7.10;;
4555;SDS011;2290;48.674;9.018;2023-04-16T06:20:43;13.93;;;6.80;;
4555;SDS011;2290;48.674;9.018;2023-04-16T06:23:09;15.07;;;6.97;;
4555;SDS011;2290;48.674;9.018;2023-04-16T06:25:35;14.33;;;6.30;;
4555;SDS011;2290;48.674;9.018;2023-04-16T06:28:02;18.00;;;7.53;;
4555;SDS011;2290;48.674;9.018;2023-04-16T06:30:27;15.37;;;7.20;;
4555;SDS011;2290;48.674;9.018;2023-04-16T06:32:53;14.37;;;6.23;;
4555;SDS011;2290;48.674;9.018;2023-04-16T06:35:20;18.07;;;7.97;;
4555;SDS011;2290;48.674;9.018;2023-04-16T06:37:46;19.10;;;7.80;;
4555;SDS011;2290;48.674;9.018;2023-04-16T06:40:11;18.00;;;7.63;;
4555;SDS011;2290;48.674;9.018;2023-04-16T06:42:38;17.53;;;8.03;;
4555;SDS011;2290;48.674;9.018;2023-04-16T06:45:04;14.03;;;7.20;;
4555;SDS011;2290;48.674;9.018;2023-04-16T06:47:32;22.07;;;8.77;;
4555;SDS011;2290;48.674;9.018;2023-04-16T06:49:58;17.97;;;7.33;;
4555;SDS011;2290;48.674;9.018;2023-04-16T06:52:24;18.07;;;7.47;;
4555;SDS011;2290;48.674;9.018;2023-04-16T06:54:50;19.80;;;8.47;;
4555;SDS011;2290;48.674;9.018;2023-04-16T06:57:16;16.13;;;7.93;;
4555;SDS011;2290;48.674;9.018;2023-04-16T06:59:42;18.47;;;8.87;;
4555;SDS011;2290;48.674;9.018;2023-04-16T07:02:08;20.43;;;8.33;;
4555;SDS011;2290;48.674;9.018;2023-04-16T07:04:34;19.70;;;7.80;;
4555;SDS011;2290;48.674;9.018;2023-04-16T07:06:59;17.57;;;7.87;;
4555;SDS011;2290;48.674;9.018;2023-04-16T07:09:25;18.13;;;8.50;;
4555;SDS011;2290;48.674;9.018;2023-04-16T07:11:51;18.53;;;9.13;;
4555;SDS011;2290;48.674;9.018;2023-04-16T07:14:19;20.40;;;8.33;;
4555;SDS011;2290;48.674;9.018;2023-04-16T07:16:44;16.50;;;7.70;;
4555;SDS011;2290;48.674;9.018;2023-04-16T07:19:10;17.93;;;7.77;;
4555;SDS011;2290;48.674;9.018;2023-04-16T07:21:36;16.77;;;8.10;;
4555;SDS011;2290;48.674;9.018;2023-04-16T07:24:02;16.57;;;7.60;;
4555;SDS011;2290;48.674;9.018;2023-04-16T07:26:27;21.07;;;8.90;;
4555;SDS011;2290;48.674;9.018;2023-04-16T07:28:53;23.90;;;8.90;;
4555;SDS011;2290;48.674;9.018;2023-04-16T07:31:18;20.33;;;8.13;;
4555;SDS011;2290;48.674;9.018;2023-04-16T07:33:47;18.00;;;8.20;;
4555;SDS011;2290;48.674;9.018;2023-04-16T07:36:12;17.43;;;8.40;;
4555;SDS011;2290;48.674;9.018;2023-04-16T07:38:40;15.90;;;7.53;;
4555;SDS011;2290;48.674;9.018;2023-04-16T07:41:07;16.13;;;7.97;;
4555;SDS011;2290;48.674;9.018;2023-04-16T07:43:33;18.10;;;8.20;;
4555;SDS011;2290;48.674;9.018;2023-04-16T07:46:00;14.77;;;7.63;;
4555;SDS011;2290;48.674;9.018;2023-04-16T07:48:26;16.40;;;7.63;;
4555;SDS011;2290;48.674;9.018;2023-04-16T07:50:51;17.60;;;8.43;;
4555;SDS011;2290;48.674;9.018;2023-04-16T07:53:17;17.63;;;8.30;;
4555;SDS011;2290;48.674;9.018;2023-04-16T07:55:44;19.03;;;8.33;;
4555;SDS011;2290;48.674;9.018;2023-04-16T07:58:11;15.03;;;8.10;;
4555;SDS011;2290;48.674;9.018;2023-04-16T08:00:38;16.03;;;7.77;;
4555;SDS011;2290;48.674;9.018;2023-04-16T08:03:05;15.87;;;7.43;;
4555;SDS011;2290;48.674;9.018;2023-04-16T08:05:33;14.47;;;7.23;;
4555;SDS011;2290;48.674;9.018;2023-04-16T08:07:58;18.00;;;7.90;;
4555;SDS011;2290;48.674;9.018;2023-04-16T08:10:24;12.60;;;7.37;;
4555;SDS011;2290;48.674;9.018;2023-04-16T08:12:52;14.03;;;6.60;;
4555;SDS011;2290;48.674;9.018;2023-04-16T08:15:19;15.97;;;6.57;;
4555;SDS011;2290;48.674;9.018;2023-04-16T08:17:44;14.90;;;7.43;;
4555;SDS011;2290;48.674;9.018;2023-04-16T08:20:11;14.07;;;6.67;;
4555;SDS011;2290;48.674;9.018;2023-04-16T08:22:38;16.40;;;7.93;;
4555;SDS011;2290;48.674;9.018;2023-04-16T08:25:04;15.80;;;6.83;;
4555;SDS011;2290;48.674;9.018;2023-04-16T08:27:30;13.97;;;7.80;;
4555;SDS011;2290;48.674;9.018;2023-04-16T08:29:56;15.57;;;8.93;;
4555;SDS011;2290;48.674;9.018;2023-04-16T08:32:21;14.60;;;6.77;;
4555;SDS011;2290;48.674;9.018;2023-04-16T08:34:47;16.97;;;7.13;;
4555;SDS011;2290;48.674;9.018;2023-04-16T08:37:14;14.20;;;7.17;;
4555;SDS011;2290;48.674;9.018;2023-04-16T08:39:41;16.40;;;6.70;;
4555;SDS011;2290;48.674;9.018;2023-04-16T08:42:08;18.47;;;8.23;;
4555;SDS011;2290;48.674;9.018;2023-04-16T08:44:43;16.10;;;7.70;;
4555;SDS011;2290;48.674;9.018;2023-04-16T08:47:14;16.60;;;7.60;;
4555;SDS011;2290;48.674;9.018;2023-04-16T08:49:43;16.33;;;7.13;;
4555;SDS011;2290;48.674;9.018;2023-04-16T08:52:14;13.20;;;6.13;;
4555;SDS011;2290;48.674;9.018;2023-04-16T08:54:51;11.80;;;6.30;;
4555;SDS011;2290;48.674;9.018;2023-04-16T08:57:25;15.40;;;7.57;;
4555;SDS011;2290;48.674;9.018;2023-04-16T08:59:54;13.27;;;6.97;;
4555;SDS011;2290;48.674;9.018;2023-04-16T09:02:22;13.03;;;6.73;;
4555;SDS011;2290;48.674;9.018;2023-04-16T09:04:51;13.00;;;6.53;;
4555;SDS011;2290;48.674;9.018;2023-04-16T09:07:17;14.37;;;6.70;;
4555;SDS011;2290;48.674;9.018;2023-04-16T09:09:47;19.23;;;7.80;;
4555;SDS011;2290;48.674;9.018;2023-04-16T09:12:14;12.50;;;7.17;;
4555;SDS011;2290;48.674;9.018;2023-04-16T09:14:45;15.10;;;7.30;;
4555;SDS011;2290;48.674;9.018;2023-04-16T09:17:13;15.80;;;8.13;;
4555;SDS011;2290;48.674;9.018;2023-04-16T09:19:42;14.40;;;7.07;;
4555;SDS011;2290;48.674;9.018;2023-04-16T09:22:10;14.90;;;6.87;;
4555;SDS011;2290;48.674;9.018;2023-04-16T09:24:37;13.50;;;6.80;;
4555;SDS011;2290;48.674;9.018;2023-04-16T09:27:03;12.63;;;6.87;;
4555;SDS011;2290;48.674;9.018;2023-04-16T09:29:39;12.33;;;6.10;;
4555;SDS011;2290;48.674;9.018;2023-04-16T09:32:06;23.00;;;6.77;;
4555;SDS011;2290;48.674;9.018;2023-04-16T09:34:33;11.93;;;6.27;;
4555;SDS011;2290;48.674;9.018;2023-04-16T09:37:18;13.80;;;6.67;;
4555;SDS011;2290;48.674;9.018;2023-04-16T09:39:44;10.93;;;6.60;;
4555;SDS011;2290;48.674;9.018;2023-04-16T09:42:25;13.10;;;6.33;;
4555;SDS011;2290;48.674;9.018;2023-04-16T09:44:53;13.87;;;6.37;;
4555;SDS011;2290;48.674;9.018;2023-04-16T09:47:21;16.30;;;7.17;;
4555;SDS011;2290;48.674;9.018;2023-04-16T09:49:49;15.20;;;6.53;;
4555;SDS011;2290;48.674;9.018;2023-04-16T09:52:21;15.70;;;7.27;;
4555;SDS011;2290;48.674;9.018;2023-04-16T09:54:50;17.50;;;7.13;;
4555;SDS011;2290;48.674;9.018;2023-04-16T09:57:18;14.87;;;6.40;;
4555;SDS011;2290;48.674;9.018;2023-04-16T10:00:00;21.50;;;8.17;;
4555;SDS011;2290;48.674;9.018;2023-04-16T10:02:29;13.10;;;7.07;;
4555;SDS011;2290;48.674;9.018;2023-04-16T10:04:55;13.83;;;6.80;;
4555;SDS011;2290;48.674;9.018;2023-04-16T10:07:28;14.67;;;6.57;;
4555;SDS011;2290;48.674;9.018;2023-04-16T10:09:57;17.80;;;7.70;;
4555;SDS011;2290;48.674;9.018;2023-04-16T10:12:23;13.10;;;7.17;;
4555;SDS011;2290;48.674;9.018;2023-04-16T10:14:48;15.13;;;6.50;;
4555;SDS011;2290;48.674;9.018;2023-04-16T10:17:21;14.20;;;6.40;;
4555;SDS011;2290;48.674;9.018;2023-04-16T10:19:47;15.40;;;7.47;;
4555;SDS011;2290;48.674;9.018;2023-04-16T10:22:15;14.47;;;6.77;;
4555;SDS011;2290;48.674;9.018;2023-04-16T10:24:40;17.53;;;7.57;;
4555;SDS011;2290;48.674;9.018;2023-04-16T10:27:07;16.63;;;7.97;;
4555;SDS011;2290;48.674;9.018;2023-04-16T10:29:34;13.10;;;6.70;;
4555;SDS011;2290;48.674;9.018;2023-04-16T10:32:00;12.77;;;6.80;;
4555;SDS011;2290;48.674;9.018;2023-04-16T10:34:27;15.43;;;8.07;;
4555;SDS011;2290;48.674;9.018;2023-04-16T10:36:56;15.67;;;6.93;;
4555;SDS011;2290;48.674;9.018;2023-04-16T10:39:22;13.40;;;6.17;;
4555;SDS011;2290;48.674;9.018;2023-04-16T10:42:09;13.30;;;7.40;;
4555;SDS011;2290;48.674;9.018;2023-04-16T10:44:36;16.13;;;7.47;;
4555;SDS011;2290;48.674;9.018;2023-04-16T10:47:10;17.00;;;7.50;;
4555;SDS011;2290;48.674;9.018;2023-04-16T10:49:38;15.73;;;7.30;;
4555;SDS011;2290;48.674;9.018;2023-04-16T10:52:07;12.60;;;6.40;;
4555;SDS011;2290;48.674;9.018;2023-04-16T10:54:35;14.80;;;7.37;;
4555;SDS011;2290;48.674;9.018;2023-04-16T10:57:06;13.30;;;6.67;;
4555;SDS011;2290;48.674;9.018;2023-04-16T10:59:34;14.30;;;6.67;;
4555;SDS011;2290;48.674;9.018;2023-04-16T11:02:06;12.50;;;5.70;;
4555;SDS011;2290;48.674;9.018;2023-04-16T11:07:18;12.77;;;5.50;;
4555;SDS011;2290;48.674;9.018;2023-04-16T11:15:10;10.77;;;5.83;;
4555;SDS011;2290;48.674;9.018;2023-04-16T11:17:47;12.37;;;5.33;;
4555;SDS011;2290;48.674;9.018;2023-04-16T11:20:16;8.80;;;5.40;;
4555;SDS011;2290;48.674;9.018;2023-04-16T11:22:52;14.13;;;5.27;;
4555;SDS011;2290;48.674;9.018;2023-04-16T11:25:22;11.07;;;5.60;;
4555;SDS011;2290;48.674;9.018;2023-04-16T11:27:53;9.73;;;5.07;;
4555;SDS011;2290;48.674;9.018;2023-04-16T11:30:29;9.90;;;5.37;;
4555;SDS011;2290;48.674;9.018;2023-04-16T11:32:58;9.30;;;4.50;;
4555;SDS011;2290;48.674;9.018;2023-04-16T11:35:27;10.70;;;5.60;;
4555;SDS011;2290;48.674;9.018;2023-04-16T11:37:57;11.30;;;5.60;;
4555;SDS011;2290;48.674;9.018;2023-04-16T11:40:23;11.33;;;4.47;;
4555;SDS011;2290;48.674;9.018;2023-04-16T11:42:53;8.03;;;4.57;;
4555;SDS011;2290;48.674;9.018;2023-04-16T11:45:18;10.80;;;5.20;;
4555;SDS011;2290;48.674;9.018;2023-04-16T11:47:45;11.80;;;4.87;;
4555;SDS011;2290;48.674;9.018;2023-04-16T11:50:25;10.20;;;4.90;;
4555;SDS011;2290;48.674;9.018;2023-04-16T11:52:53;12.03;;;5.70;;
4555;SDS011;2290;48.674;9.018;2023-04-16T11:55:26;8.30;;;4.30;;
4555;SDS011;2290;48.674;9.018;2023-04-16T11:57:53;14.10;;;4.90;;
4555;SDS011;2290;48.674;9.018;2023-04-16T12:00:19;11.53;;;4.40;;
4555;SDS011;2290;48.674;9.018;2023-04-16T12:02:50;12.43;;;5.33;;
4555;SDS011;2290;48.674;9.018;2023-04-16T12:08:09;8.87;;;4.70;;
4555;SDS011;2290;48.674;9.018;2023-04-16T12:10:36;7.47;;;5.00;;
4555;SDS011;2290;48.674;9.018;2023-04-16T12:13:16;9.43;;;4.70;;
4555;SDS011;2290;48.674;9.018;2023-04-16T12:15:43;7.10;;;3.73;;
4555;SDS011;2290;48.674;9.018;2023-04-16T12:18:27;8.97;;;4.93;;
4555;SDS011;2290;48.674;9.018;2023-04-16T12:20:53;6.50;;;4.13;;
4555;SDS011;2290;48.674;9.018;2023-04-16T12:23:25;6.07;;;3.47;;
4555;SDS011;2290;48.674;9.018;2023-04-16T12:25:56;4.73;;;3.03;;
4555;SDS011;2290;48.674;9.018;2023-04-16T12:28:29;5.20;;;3.23;;
4555;SDS011;2290;48.674;9.018;2023-04-16T12:31:01;8.93;;;3.60;;
4555;SDS011;2290;48.674;9.018;2023-04-16T12:33:29;6.50;;;3.73;;
4555;SDS011;2290;48.674;9.018;2023-04-16T12:35:55;5.53;;;3.23;;
4555;SDS011;2290;48.674;9.018;2023-04-16T12:38:20;5.73;;;3.23;;
4555;SDS011;2290;48.674;9.018;2023-04-16T12:40:46;2.80;;;2.27;;
4555;SDS011;2290;48.674;9.018;2023-04-16T12:43:12;3.73;;;2.47;;
4555;SDS011;2290;48.674;9.018;2023-04-16T12:45:38;3.40;;;2.27;;
4555;SDS011;2290;48.674;9.018;2023-04-16T12:48:04;3.90;;;2.30;;
4555;SDS011;2290;48.674;9.018;2023-04-16T12:50:30;3.27;;;2.10;;
4555;SDS011;2290;48.674;9.018;2023-04-16T12:52:56;1.93;;;1.73;;
4555;SDS011;2290;48.674;9.018;2023-04-16T12:55:23;3.73;;;2.20;;
4555;SDS011;2290;48.674;9.018;2023-04-16T12:57:50;3.60;;;1.93;;
4555;SDS011;2290;48.674;9.018;2023-04-16T13:00:17;3.50;;;2.00;;
4555;SDS011;2290;48.674;9.018;2023-04-16T13:02:44;3.00;;;2.20;;
4555;SDS011;2290;48.674;9.018;2023-04-16T13:05:10;2.47;;;1.97;;
4555;SDS011;2290;48.674;9.018;2023-04-16T13:07:37;3.27;;;2.00;;
4555;SDS011;2290;48.674;9.018;2023-04-16T13:10:06;5.27;;;3.60;;
4555;SDS011;2290;48.674;9.018;2023-04-16T13:12:33;3.50;;;2.10;;
4555;SDS011;2290;48.674;9.018;2023-04-16T13:14:59;3.67;;;2.00;;
4555;SDS011;2290;48.674;9.018;2023-04-16T13:17:24;1.70;;;1.60;;
4555;SDS011;2290;48.674;9.018;2023-04-16T13:19:50;6.73;;;2.60;;
4555;SDS011;2290;48.674;9.018;2023-04-16T13:22:17;3.37;;;2.40;;
4555;SDS011;2290;48.674;9.018;2023-04-16T13:24:43;3.40;;;2.37;;
4555;SDS011;2290;48.674;9.018;2023-04-16T13:27:10;3.60;;;2.10;;
4555;SDS011;2290;48.674;9.018;2023-04-16T13:29:37;3.20;;;1.93;;
4555;SDS011;2290;48.674;9.018;2023-04-16T13:32:03;2.80;;;2.37;;
4555;SDS011;2290;48.674;9.018;2023-04-16T13:34:29;4.00;;;2.50;;
4555;SDS011;2290;48.674;9.018;2023-04-16T13:36:57;4.63;;;2.30;;
4555;SDS011;2290;48.674;9.018;2023-04-16T13:39:22;3.30;;;2.13;;
4555;SDS011;2290;48.674;9.018;2023-04-16T13:41:49;4.13;;;2.40;;
4555;SDS011;2290;48.674;9.018;2023-04-16T13:44:15;4.17;;;2.30;;
4555;SDS011;2290;48.674;9.018;2023-04-16T13:46:42;2.73;;;2.10;;
4555;SDS011;2290;48.674;9.018;2023-04-16T13:49:11;4.47;;;2.10;;
4555;SDS011;2290;48.674;9.018;2023-04-16T13:51:38;4.10;;;2.60;;
4555;SDS011;2290;48.674;9.018;2023-04-16T13:54:06;4.40;;;2.17;;
4555;SDS011;2290;48.674;9.018;2023-04-16T13:56:32;3.20;;;2.10;;
4555;SDS011;2290;48.674;9.018;2023-04-16T13:58:59;3.77;;;2.60;;
4555;SDS011;2290;48.674;9.018;2023-04-16T14:01:24;3.30;;;2.37;;
4555;SDS011;2290;48.674;9.018;2023-04-16T14:03:50;2.67;;;2.27;;
4555;SDS011;2290;48.674;9.018;2023-04-16T14:06:15;3.60;;;2.47;;
4555;SDS011;2290;48.674;9.018;2023-04-16T14:08:42;3.60;;;2.73;;
4555;SDS011;2290;48.674;9.018;2023-04-16T14:11:08;4.70;;;2.90;;
4555;SDS011;2290;48.674;9.018;2023-04-16T14:13:33;3.57;;;2.33;;
4555;SDS011;2290;48.674;9.018;2023-04-16T14:15:59;5.90;;;3.07;;
4555;SDS011;2290;48.674;9.018;2023-04-16T14:18:25;6.00;;;2.90;;
4555;SDS011;2290;48.674;9.018;2023-04-16T14:20:51;5.00;;;2.93;;
4555;SDS011;2290;48.674;9.018;2023-04-16T14:23:18;4.87;;;3.03;;
4555;SDS011;2290;48.674;9.018;2023-04-16T14:25:45;4.97;;;3.07;;
4555;SDS011;2290;48.674;9.018;2023-04-16T14:28:10;6.63;;;3.83;;
4555;SDS011;2290;48.674;9.018;2023-04-16T14:30:38;5.10;;;3.33;;
4555;SDS011;2290;48.674;9.018;2023-04-16T14:33:06;5.97;;;4.00;;
4555;SDS011;2290;48.674;9.018;2023-04-16T14:35:31;4.93;;;3.40;;
4555;SDS011;2290;48.674;9.018;2023-04-16T14:37:58;5.00;;;3.47;;
4555;SDS011;2290;48.674;9.018;2023-04-16T14:40:23;6.50;;;4.30;;
4555;SDS011;2290;48.674;9.018;2023-04-16T14:42:50;7.87;;;4.37;;
4555;SDS011;2290;48.674;9.018;2023-04-16T14:45:16;6.57;;;3.70;;
4555;SDS011;2290;48.674;9.018;2023-04-16T14:47:44;5.43;;;3.67;;
4555;SDS011;2290;48.674;9.018;2023-04-16T14:50:12;5.77;;;3.87;;
4555;SDS011;2290;48.674;9.018;2023-04-16T14:52:38;5.43;;;3.87;;
4555;SDS011;2290;48.674;9.018;2023-04-16T14:55:03;6.50;;;4.00;;
4555;SDS011;2290;48.674;9.018;2023-04-16T14:57:30;6.80;;;3.70;;
4555;SDS011;2290;48.674;9.018;2023-04-16T14:59:57;7.60;;;3.90;;
4555;SDS011;2290;48.674;9.018;2023-04-16T15:02:23;6.80;;;4.00;;
4555;SDS011;2290;48.674;9.018;2023-04-16T15:04:50;7.50;;;4.10;;
4555;SDS011;2290;48.674;9.018;2023-04-16T15:07:16;6.00;;;3.87;;
4555;SDS011;2290;48.674;9.018;2023-04-16T15:09:41;9.80;;;4.83;;
4555;SDS011;2290;48.674;9.018;2023-04-16T15:12:07;8.27;;;4.60;;
4555;SDS011;2290;48.674;9.018;2023-04-16T15:14:33;7.90;;;4.50;;
4555;SDS011;2290;48.674;9.018;2023-04-16T15:17:00;9.70;;;5.07;;
4555;SDS011;2290;48.674;9.018;2023-04-16T15:19:26;9.53;;;4.57;;
4555;SDS011;2290;48.674;9.018;2023-04-16T15:21:53;7.63;;;4.70;;